DZI weather

Las Flores Airport
Codazzi, César Department, Colombia

Public forecast

Using degrees Celsius for public forecast. Weather courtesy of forecast.io.

Closest aviation weather report (METAR) to Las Flores Airport

Closest report is Alfonso López Pumarejo Airport, 20.3 nm (37.7 km) N. Retrieved 2019/12/11 19:00 UTC (2 minutes ago):

SKVP 111900Z 08012KT 9999 FEW020 BKN200 34/17 A2985

Closest aviation forecast (TAF) to Las Flores Airport

Forecast is more than 12 hours old.

Closest forecast is Villa del Rosario Airport, 56.7 nm (105.1 km) ENE. Retrieved 2019/09/09 18:00 UTC (3 months ago):

TAF SVVS 091700Z 0918/1018 18004KT 9999 BKN016 TX30/0919Z TN22/1008Z TEMPO 0919/0921 9000 DZ TEMPO 0922/1002 24005KT 9999 SCT016 SCT150